createdAt,value
2022-08-26T00:00:19.772Z,19.47
2022-08-26T00:02:47.683Z,19.46
2022-08-26T00:05:15.607Z,19.38
2022-08-26T00:07:44.034Z,19.34
2022-08-26T00:10:12.729Z,19.32
2022-08-26T00:12:41.593Z,19.29
2022-08-26T00:15:14.278Z,19.25
2022-08-26T00:17:42.987Z,19.27
2022-08-26T00:20:12.800Z,19.24
2022-08-26T00:22:42.402Z,19.22
2022-08-26T00:25:12.131Z,19.04
2022-08-26T00:27:40.073Z,19.01
2022-08-26T00:30:13.284Z,19.00
2022-08-26T00:32:41.465Z,19.03
2022-08-26T00:35:13.177Z,18.96
2022-08-26T00:37:42.949Z,18.95
2022-08-26T00:40:14.238Z,18.89
2022-08-26T00:42:46.148Z,18.89
2022-08-26T00:45:16.328Z,18.86
2022-08-26T00:47:48.417Z,18.82
2022-08-26T00:50:19.761Z,18.78
2022-08-26T00:52:48.977Z,18.79
2022-08-26T00:55:23.208Z,18.78
2022-08-26T00:57:51.907Z,18.72
2022-08-26T01:00:27.057Z,18.71
2022-08-26T01:02:56.509Z,18.68
2022-08-26T01:05:25.940Z,18.71
2022-08-26T01:07:53.859Z,18.67
2022-08-26T01:10:25.593Z,18.69
2022-08-26T01:12:57.543Z,18.64
2022-08-26T01:15:35.483Z,18.59
2022-08-26T01:18:05.403Z,18.55
2022-08-26T01:20:42.367Z,18.48
2022-08-26T01:23:13.184Z,18.45
2022-08-26T01:25:45.925Z,18.42
2022-08-26T01:28:18.028Z,18.43
2022-08-26T01:30:47.816Z,18.45
2022-08-26T01:33:20.323Z,18.41
2022-08-26T01:35:48.594Z,18.42
2022-08-26T01:38:18.721Z,18.40
2022-08-26T01:40:47.043Z,18.37
2022-08-26T01:43:18.357Z,18.34
2022-08-26T01:45:47.829Z,18.33
2022-08-26T01:48:20.206Z,18.33
2022-08-26T01:50:59.983Z,18.32
2022-08-26T01:53:29.337Z,18.29
2022-08-26T01:55:59.883Z,18.26
2022-08-26T01:58:31.894Z,18.21
2022-08-26T02:01:00.069Z,18.16
2022-08-26T02:03:31.169Z,18.15
2022-08-26T02:06:03.912Z,18.14
2022-08-26T02:08:39.048Z,18.12
2022-08-26T02:11:07.214Z,18.10
2022-08-26T02:13:39.085Z,18.10
2022-08-26T02:16:09.388Z,18.07
2022-08-26T02:18:41.255Z,18.05
2022-08-26T02:21:12.608Z,18.03
2022-08-26T02:23:42.634Z,17.99
2022-08-26T02:26:14.366Z,17.99
2022-08-26T02:28:51.286Z,17.94
2022-08-26T02:31:19.894Z,17.90
2022-08-26T02:33:48.002Z,17.92
2022-08-26T02:36:21.988Z,17.94
2022-08-26T02:38:52.118Z,17.94
2022-08-26T02:41:20.051Z,17.90
2022-08-26T02:43:51.042Z,17.82
2022-08-26T02:46:27.931Z,17.80
2022-08-26T02:48:57.932Z,17.84
2022-08-26T02:51:26.126Z,17.84
2022-08-26T02:53:55.448Z,17.81
2022-08-26T02:56:23.544Z,17.75
2022-08-26T02:58:51.443Z,17.74
2022-08-26T03:01:23.791Z,17.72
2022-08-26T03:03:51.778Z,17.74
2022-08-26T03:06:19.668Z,17.69
2022-08-26T03:08:47.746Z,17.65
2022-08-26T03:11:17.068Z,17.63
2022-08-26T03:13:45.001Z,17.65
2022-08-26T03:16:13.619Z,17.63
2022-08-26T03:18:42.095Z,17.57
2022-08-26T03:21:12.535Z,17.53
2022-08-26T03:23:41.547Z,17.51
2022-08-26T03:26:13.259Z,17.45
2022-08-26T03:29:02.941Z,17.44
2022-08-26T03:31:30.252Z,17.42
2022-08-26T03:33:59.799Z,17.42
2022-08-26T03:36:27.922Z,17.42
2022-08-26T03:38:57.260Z,17.37
2022-08-26T03:41:25.387Z,17.35
2022-08-26T03:43:58.423Z,17.38
2022-08-26T03:46:29.811Z,17.33
2022-08-26T03:48:57.807Z,17.33
2022-08-26T03:51:27.243Z,17.35
2022-08-26T03:53:55.961Z,17.32
2022-08-26T03:56:24.991Z,17.37
2022-08-26T03:58:55.605Z,17.29
2022-08-26T04:01:24.072Z,17.34
2022-08-26T04:04:01.571Z,17.27
2022-08-26T04:06:33.559Z,17.29
2022-08-26T04:09:05.383Z,17.26
2022-08-26T04:11:35.601Z,17.23
2022-08-26T04:14:10.976Z,17.17
2022-08-26T04:16:38.984Z,17.19
2022-08-26T04:19:07.356Z,17.18
2022-08-26T04:21:35.848Z,17.14
2022-08-26T04:24:04.129Z,17.18
2022-08-26T04:26:39.580Z,17.14
2022-08-26T04:29:15.321Z,17.14
2022-08-26T04:31:43.525Z,17.13
2022-08-26T04:34:11.710Z,17.14
2022-08-26T04:36:43.087Z,17.10
2022-08-26T04:39:16.514Z,17.08
2022-08-26T04:41:44.581Z,17.05
2022-08-26T04:44:13.923Z,17.04
2022-08-26T04:46:43.724Z,17.03
2022-08-26T04:49:13.172Z,17.05
2022-08-26T04:51:41.452Z,17.01
2022-08-26T04:54:14.060Z,17.02
2022-08-26T04:56:47.329Z,17.01
2022-08-26T04:59:18.396Z,16.98
2022-08-26T05:01:47.887Z,17.00
2022-08-26T05:04:19.028Z,17.05
2022-08-26T05:06:47.580Z,17.04
2022-08-26T05:09:16.110Z,17.06
2022-08-26T05:11:45.562Z,17.08
2022-08-26T05:14:18.840Z,17.11
2022-08-26T05:16:47.976Z,17.15
2022-08-26T05:19:18.916Z,17.20
2022-08-26T05:21:48.318Z,17.20
2022-08-26T05:24:16.569Z,17.24
2022-08-26T05:26:45.347Z,17.27
2022-08-26T05:29:13.901Z,17.27
2022-08-26T05:31:43.283Z,17.30
2022-08-26T05:34:11.152Z,17.32
2022-08-26T05:36:39.213Z,17.32
2022-08-26T05:39:08.117Z,17.32
2022-08-26T05:41:40.945Z,17.32
2022-08-26T05:44:12.698Z,17.37
2022-08-26T05:46:44.689Z,17.37
2022-08-26T05:49:14.239Z,17.36
2022-08-26T05:51:46.396Z,17.39
2022-08-26T05:54:21.880Z,17.41
2022-08-26T05:56:51.288Z,17.46
2022-08-26T05:59:23.972Z,17.51
2022-08-26T06:01:55.549Z,17.58
2022-08-26T06:04:27.199Z,17.62
2022-08-26T06:06:56.722Z,17.66
2022-08-26T06:09:25.203Z,17.69
2022-08-26T06:11:53.083Z,17.70
2022-08-26T06:14:21.535Z,17.70
2022-08-26T06:16:50.218Z,17.79
2022-08-26T06:19:20.070Z,17.95
2022-08-26T06:21:54.747Z,18.07
2022-08-26T06:24:41.234Z,18.17
2022-08-26T06:27:13.580Z,18.25
2022-08-26T06:29:41.811Z,18.42
2022-08-26T06:32:09.836Z,18.49
2022-08-26T06:34:39.103Z,18.62
2022-08-26T06:37:07.185Z,18.69
2022-08-26T06:39:35.557Z,18.74
2022-08-26T06:42:09.525Z,18.86
2022-08-26T06:44:39.068Z,18.94
2022-08-26T06:47:09.187Z,19.05
2022-08-26T06:49:37.194Z,19.14
2022-08-26T06:52:06.598Z,19.22
2022-08-26T06:54:34.783Z,19.37
2022-08-26T06:57:02.739Z,19.40
2022-08-26T06:59:31.494Z,19.49
2022-08-26T07:01:59.415Z,19.64
2022-08-26T07:04:28.077Z,19.73
2022-08-26T07:06:56.694Z,19.79
2022-08-26T07:09:29.224Z,19.90
2022-08-26T07:11:57.194Z,20.00
2022-08-26T07:14:25.334Z,20.11
2022-08-26T07:16:55.032Z,20.20
2022-08-26T07:19:30.014Z,20.26
2022-08-26T07:22:01.743Z,20.40
2022-08-26T07:24:32.323Z,20.46
2022-08-26T07:27:02.742Z,20.54
2022-08-26T07:29:30.974Z,20.64
2022-08-26T07:31:58.895Z,20.76
2022-08-26T07:34:27.864Z,20.84
2022-08-26T07:36:56.861Z,20.90
2022-08-26T07:39:25.393Z,21.02
2022-08-26T07:41:55.057Z,21.07
2022-08-26T07:44:24.018Z,21.15
2022-08-26T07:46:53.062Z,21.26
2022-08-26T07:49:22.583Z,21.39
2022-08-26T07:51:50.910Z,21.49
2022-08-26T07:54:18.981Z,21.62
2022-08-26T07:56:47.492Z,21.70
2022-08-26T07:59:18.578Z,21.83
2022-08-26T08:01:47.581Z,21.93
2022-08-26T08:04:17.384Z,22.07
2022-08-26T08:06:47.322Z,22.18
2022-08-26T08:09:16.411Z,22.24
2022-08-26T08:11:45.739Z,22.29
2022-08-26T08:14:18.204Z,22.40
2022-08-26T08:16:51.168Z,22.37
2022-08-26T08:19:23.081Z,22.36
2022-08-26T08:21:51.859Z,22.41
2022-08-26T08:24:21.951Z,22.44
2022-08-26T08:26:50.427Z,22.45
2022-08-26T08:29:20.115Z,22.50
2022-08-26T08:31:58.472Z,22.53
2022-08-26T08:34:29.631Z,22.55
2022-08-26T08:36:57.765Z,22.65
2022-08-26T08:39:26.357Z,22.73
2022-08-26T08:42:13.290Z,22.85
2022-08-26T08:44:52.082Z,22.90
2022-08-26T08:47:32.026Z,23.04
2022-08-26T08:50:04.722Z,23.18
2022-08-26T08:52:36.312Z,23.16
2022-08-26T08:55:11.069Z,23.23
2022-08-26T08:57:54.631Z,23.38
2022-08-26T09:00:30.149Z,23.49
2022-08-26T09:03:02.726Z,23.60
2022-08-26T09:05:37.061Z,23.76
2022-08-26T09:08:11.387Z,23.86
2022-08-26T09:10:41.811Z,23.81
2022-08-26T09:13:13.809Z,23.79
2022-08-26T09:15:56.811Z,23.93
2022-08-26T09:18:40.743Z,23.93
2022-08-26T09:21:11.756Z,23.93
2022-08-26T09:23:43.063Z,23.98
2022-08-26T09:26:17.919Z,23.97
2022-08-26T09:28:49.033Z,24.01
2022-08-26T09:31:24.962Z,24.06
2022-08-26T09:34:07.299Z,23.98
2022-08-26T09:36:41.118Z,23.99
2022-08-26T09:39:27.639Z,24.00
2022-08-26T09:42:08.169Z,24.00
2022-08-26T09:44:55.293Z,24.05
2022-08-26T09:47:30.273Z,24.11
2022-08-26T09:50:04.563Z,24.15
2022-08-26T09:52:37.906Z,24.22
2022-08-26T09:55:14.567Z,24.17
2022-08-26T09:57:48.989Z,24.19
2022-08-26T10:00:30.675Z,24.19
2022-08-26T10:03:03.111Z,24.15
2022-08-26T10:05:35.880Z,24.24
2022-08-26T10:08:18.478Z,24.27
2022-08-26T10:10:47.208Z,24.26
2022-08-26T10:13:26.152Z,24.20
2022-08-26T10:16:03.076Z,24.21
2022-08-26T10:18:39.851Z,24.33
2022-08-26T10:21:11.969Z,24.40
2022-08-26T10:23:45.166Z,24.54
2022-08-26T10:26:17.461Z,24.49
2022-08-26T10:28:52.098Z,24.46
2022-08-26T10:31:27.871Z,24.43
2022-08-26T10:34:00.144Z,24.42
2022-08-26T10:37:13.937Z,24.45
2022-08-26T10:39:56.825Z,24.52
2022-08-26T10:42:31.027Z,24.58
2022-08-26T10:45:06.082Z,24.70
2022-08-26T10:47:42.612Z,24.67
2022-08-26T10:50:12.777Z,24.79
2022-08-26T10:52:55.464Z,24.84
2022-08-26T10:55:29.554Z,24.94
2022-08-26T10:58:14.448Z,24.97
2022-08-26T11:01:28.644Z,25.02
2022-08-26T11:04:04.618Z,25.06
2022-08-26T11:06:33.927Z,25.13
2022-08-26T11:09:07.094Z,25.28
2022-08-26T11:11:50.040Z,25.32
2022-08-26T11:14:45.966Z,25.33
2022-08-26T11:17:58.086Z,25.41
2022-08-26T11:20:41.531Z,25.50
2022-08-26T11:23:50.460Z,25.58
2022-08-26T11:26:35.476Z,25.70
2022-08-26T11:29:12.152Z,25.64
2022-08-26T11:31:56.803Z,25.62
2022-08-26T11:34:54.906Z,25.66
2022-08-26T11:37:30.818Z,25.76
2022-08-26T11:40:03.164Z,25.76
2022-08-26T11:42:37.462Z,25.74
2022-08-26T11:45:18.160Z,25.86
2022-08-26T11:47:46.556Z,25.89
2022-08-26T11:50:21.052Z,25.96
2022-08-26T11:52:53.775Z,25.80
2022-08-26T11:55:24.238Z,25.93
2022-08-26T11:57:55.534Z,25.97
2022-08-26T12:00:27.535Z,25.91
2022-08-26T12:03:05.986Z,25.96
2022-08-26T12:05:38.215Z,26.01
2022-08-26T12:08:10.746Z,26.14
2022-08-26T12:10:40.728Z,26.11
2022-08-26T12:13:10.205Z,26.12
2022-08-26T12:15:38.428Z,26.29
2022-08-26T12:18:29.043Z,26.37
2022-08-26T12:20:59.767Z,26.42
2022-08-26T12:23:40.326Z,26.35
2022-08-26T12:26:15.405Z,26.66
2022-08-26T12:28:45.916Z,26.58
2022-08-26T12:31:22.540Z,26.51
2022-08-26T12:33:51.674Z,26.53
2022-08-26T12:36:27.417Z,26.53
2022-08-26T12:38:58.508Z,26.57
2022-08-26T12:41:46.936Z,26.56
2022-08-26T12:44:53.361Z,26.49
2022-08-26T12:47:41.799Z,26.44
2022-08-26T12:50:18.124Z,26.48
2022-08-26T12:52:56.911Z,26.44
2022-08-26T12:55:28.956Z,26.42
2022-08-26T12:58:14.941Z,26.43
2022-08-26T13:00:45.030Z,26.40
2022-08-26T13:03:30.817Z,26.41
2022-08-26T13:06:16.090Z,26.29
2022-08-26T13:08:45.962Z,26.29
2022-08-26T13:11:18.498Z,26.25
2022-08-26T13:13:51.607Z,26.31
2022-08-26T13:16:20.126Z,26.38
2022-08-26T13:18:48.649Z,26.37
2022-08-26T13:21:19.894Z,26.38
2022-08-26T13:23:48.641Z,26.46
2022-08-26T13:26:17.360Z,26.56
2022-08-26T13:29:01.434Z,26.67
2022-08-26T13:31:32.204Z,26.75
2022-08-26T13:34:02.148Z,26.91
2022-08-26T13:36:30.466Z,26.89
2022-08-26T13:38:59.045Z,26.93
2022-08-26T13:41:29.266Z,27.03
2022-08-26T13:43:59.692Z,27.11
2022-08-26T13:46:28.291Z,27.09
2022-08-26T13:48:56.560Z,27.11
2022-08-26T13:51:26.238Z,27.08
2022-08-26T13:53:54.846Z,27.03
2022-08-26T13:56:23.322Z,27.08
2022-08-26T13:58:51.509Z,27.02
2022-08-26T14:01:21.381Z,27.08
2022-08-26T14:03:49.359Z,27.15
2022-08-26T14:06:18.128Z,27.08
2022-08-26T14:08:46.231Z,27.07
2022-08-26T14:11:14.263Z,27.00
2022-08-26T14:13:42.300Z,26.97
2022-08-26T14:16:13.384Z,26.89
2022-08-26T14:18:47.403Z,26.87
2022-08-26T14:21:17.108Z,26.90
2022-08-26T14:23:45.259Z,26.80
2022-08-26T14:26:16.812Z,26.88
2022-08-26T14:28:58.874Z,26.99
2022-08-26T14:31:29.267Z,27.09
2022-08-26T14:34:01.040Z,27.15
2022-08-26T14:36:29.416Z,27.13
2022-08-26T14:39:01.156Z,27.16
2022-08-26T14:41:30.554Z,27.13
2022-08-26T14:44:01.512Z,27.07
2022-08-26T14:46:31.196Z,27.11
2022-08-26T14:49:05.209Z,27.11
2022-08-26T14:51:35.500Z,27.04
2022-08-26T14:54:14.206Z,26.96
2022-08-26T14:56:46.804Z,26.99
2022-08-26T14:59:15.312Z,26.98
2022-08-26T15:01:43.410Z,27.05
2022-08-26T15:04:12.895Z,27.06
2022-08-26T15:06:41.999Z,27.03
2022-08-26T15:09:10.296Z,26.93
2022-08-26T15:11:38.428Z,26.91
2022-08-26T15:14:06.874Z,26.91
2022-08-26T15:16:35.591Z,26.86
2022-08-26T15:19:05.228Z,26.83
2022-08-26T15:21:36.332Z,26.81
2022-08-26T15:24:05.930Z,26.79
2022-08-26T15:26:34.639Z,26.75
2022-08-26T15:29:05.023Z,26.68
2022-08-26T15:31:34.236Z,26.61
2022-08-26T15:34:05.008Z,26.53
2022-08-26T15:36:34.983Z,26.40
2022-08-26T15:39:03.091Z,25.89
2022-08-26T15:41:31.000Z,25.62
2022-08-26T15:44:03.442Z,25.39
2022-08-26T15:46:32.483Z,25.34
2022-08-26T15:49:00.582Z,25.12
2022-08-26T15:51:30.403Z,25.06
2022-08-26T15:54:02.976Z,24.99
2022-08-26T15:56:34.824Z,24.85
2022-08-26T15:59:04.720Z,24.76
2022-08-26T16:01:33.954Z,24.65
2022-08-26T16:04:02.323Z,24.55
2022-08-26T16:06:32.411Z,24.37
2022-08-26T16:09:02.431Z,24.38
2022-08-26T16:11:31.225Z,24.25
2022-08-26T16:13:59.125Z,24.24
2022-08-26T16:16:27.050Z,24.22
2022-08-26T16:18:55.168Z,24.10
2022-08-26T16:21:27.868Z,24.09
2022-08-26T16:23:56.503Z,24.09
2022-08-26T16:26:28.855Z,23.76
2022-08-26T16:28:56.899Z,23.63
2022-08-26T16:31:25.525Z,23.53
2022-08-26T16:33:53.407Z,23.17
2022-08-26T16:36:21.298Z,23.10
2022-08-26T16:38:54.321Z,23.15
2022-08-26T16:41:22.252Z,23.08
2022-08-26T16:43:51.957Z,22.79
2022-08-26T16:46:22.131Z,22.77
2022-08-26T16:48:50.263Z,22.63
2022-08-26T16:51:22.960Z,22.31
2022-08-26T16:53:53.414Z,22.32
2022-08-26T16:56:27.730Z,22.05
2022-08-26T16:59:04.921Z,21.93
2022-08-26T17:01:33.372Z,21.87
2022-08-26T17:04:01.288Z,21.81
2022-08-26T17:06:29.742Z,21.62
2022-08-26T17:08:57.653Z,21.50
2022-08-26T17:11:25.500Z,21.42
2022-08-26T17:13:53.417Z,21.32
2022-08-26T17:16:26.594Z,21.38
2022-08-26T17:18:56.406Z,21.35
2022-08-26T17:21:24.678Z,21.30
2022-08-26T17:23:53.162Z,21.29
2022-08-26T17:26:21.596Z,21.14
2022-08-26T17:28:50.102Z,21.12
2022-08-26T17:31:18.279Z,21.17
2022-08-26T17:33:53.480Z,21.08
2022-08-26T17:36:28.195Z,20.99
2022-08-26T17:38:57.488Z,20.94
2022-08-26T17:41:26.055Z,20.91
2022-08-26T17:43:56.446Z,20.91
2022-08-26T17:46:24.445Z,20.83
2022-08-26T17:48:53.879Z,20.86
2022-08-26T17:51:23.458Z,20.75
2022-08-26T17:53:52.781Z,20.72
2022-08-26T17:56:24.108Z,20.73
2022-08-26T17:58:52.928Z,20.76
2022-08-26T18:01:21.183Z,20.76
2022-08-26T18:03:49.620Z,20.75
2022-08-26T18:06:19.645Z,20.76
2022-08-26T18:08:48.202Z,20.75
2022-08-26T18:11:18.857Z,20.68
2022-08-26T18:13:47.883Z,20.65
2022-08-26T18:16:17.729Z,20.55
2022-08-26T18:18:46.441Z,20.49
2022-08-26T18:21:16.610Z,20.53
2022-08-26T18:23:46.822Z,20.32
2022-08-26T18:26:18.140Z,20.36
2022-08-26T18:28:46.063Z,20.36
2022-08-26T18:31:15.239Z,20.29
2022-08-26T18:33:44.061Z,20.28
2022-08-26T18:36:16.980Z,20.24
2022-08-26T18:38:46.474Z,20.26
2022-08-26T18:41:14.451Z,20.29
2022-08-26T18:43:42.450Z,20.23
2022-08-26T18:46:11.673Z,20.20
2022-08-26T18:48:41.639Z,20.22
2022-08-26T18:51:16.042Z,20.20
2022-08-26T18:53:43.983Z,20.21
2022-08-26T18:56:15.389Z,20.22
2022-08-26T18:58:46.011Z,20.26
2022-08-26T19:01:14.893Z,20.25
2022-08-26T19:03:43.191Z,20.28
2022-08-26T19:06:15.566Z,20.20
2022-08-26T19:08:44.816Z,20.22
2022-08-26T19:11:14.809Z,20.11
2022-08-26T19:13:43.362Z,20.08
2022-08-26T19:16:16.633Z,20.03
2022-08-26T19:18:44.627Z,20.01
2022-08-26T19:21:12.979Z,20.04
2022-08-26T19:23:42.342Z,19.97
2022-08-26T19:26:11.159Z,19.96
2022-08-26T19:28:41.234Z,19.99
2022-08-26T19:31:11.334Z,19.80
2022-08-26T19:33:39.546Z,19.60
2022-08-26T19:36:11.500Z,19.75
2022-08-26T19:38:42.805Z,19.72
2022-08-26T19:41:12.325Z,19.71
2022-08-26T19:43:42.439Z,19.76
2022-08-26T19:46:12.838Z,19.76
2022-08-26T19:48:43.877Z,19.74
2022-08-26T19:51:15.797Z,19.71
2022-08-26T19:53:44.580Z,19.72
2022-08-26T19:56:13.802Z,19.72
2022-08-26T19:58:44.028Z,19.73
2022-08-26T20:01:13.240Z,19.71
2022-08-26T20:03:42.781Z,19.69
2022-08-26T20:06:12.792Z,19.68
2022-08-26T20:08:42.947Z,19.62
2022-08-26T20:11:16.097Z,19.59
2022-08-26T20:13:46.902Z,19.62
2022-08-26T20:16:15.605Z,19.58
2022-08-26T20:19:02.856Z,19.55
2022-08-26T20:21:35.518Z,19.55
2022-08-26T20:24:07.165Z,19.49
2022-08-26T20:26:37.110Z,19.47
2022-08-26T20:29:08.213Z,19.47
2022-08-26T20:31:36.603Z,19.46
2022-08-26T20:34:05.461Z,19.47
2022-08-26T20:36:34.148Z,19.44
2022-08-26T20:39:02.116Z,19.42
2022-08-26T20:41:30.015Z,19.39
2022-08-26T20:43:58.492Z,19.36
2022-08-26T20:46:27.896Z,19.34
2022-08-26T20:48:56.351Z,19.32
2022-08-26T20:51:26.141Z,19.30
2022-08-26T20:53:54.255Z,19.26
2022-08-26T20:56:24.289Z,19.26
2022-08-26T20:58:54.054Z,19.28
2022-08-26T21:01:24.040Z,19.24
2022-08-26T21:03:55.168Z,19.28
2022-08-26T21:06:23.754Z,19.27
2022-08-26T21:08:51.785Z,19.28
2022-08-26T21:11:21.283Z,19.25
2022-08-26T21:14:04.325Z,19.22
2022-08-26T21:16:36.684Z,19.22
2022-08-26T21:19:08.446Z,19.18
2022-08-26T21:21:36.521Z,19.13
2022-08-26T21:24:05.539Z,19.04
2022-08-26T21:26:33.664Z,19.06
2022-08-26T21:29:02.581Z,19.00
2022-08-26T21:31:31.900Z,18.98
2022-08-26T21:34:00.900Z,19.00
2022-08-26T21:36:30.253Z,18.95
2022-08-26T21:38:58.569Z,18.92
2022-08-26T21:41:26.825Z,18.94
2022-08-26T21:43:59.120Z,18.93
2022-08-26T21:46:29.514Z,18.92
2022-08-26T21:48:59.662Z,18.89
2022-08-26T21:51:31.139Z,18.94
2022-08-26T21:54:00.664Z,18.91
2022-08-26T21:56:31.519Z,18.92
2022-08-26T21:59:00.834Z,18.93
2022-08-26T22:01:31.897Z,18.95
2022-08-26T22:04:00.072Z,18.95
2022-08-26T22:06:30.062Z,18.94
2022-08-26T22:08:58.641Z,18.93
2022-08-26T22:11:28.375Z,18.92
2022-08-26T22:13:56.939Z,18.91
2022-08-26T22:16:26.806Z,18.86
2022-08-26T22:18:55.149Z,18.79
2022-08-26T22:21:25.252Z,18.84
2022-08-26T22:23:57.951Z,18.82
2022-08-26T22:26:28.712Z,18.85
2022-08-26T22:28:59.009Z,18.84
2022-08-26T22:31:37.410Z,18.81
2022-08-26T22:34:08.916Z,18.76
2022-08-26T22:36:43.611Z,18.75
2022-08-26T22:39:15.508Z,18.69
2022-08-26T22:41:44.956Z,18.74
2022-08-26T22:44:13.688Z,18.75
2022-08-26T22:46:43.718Z,18.73
2022-08-26T22:49:15.749Z,18.69
2022-08-26T22:51:44.506Z,18.69
2022-08-26T22:54:14.197Z,18.71
2022-08-26T22:56:42.311Z,18.72
2022-08-26T22:59:10.991Z,18.73
2022-08-26T23:01:42.374Z,18.76
2022-08-26T23:04:11.020Z,18.73
2022-08-26T23:06:41.051Z,18.78
2022-08-26T23:09:10.252Z,18.76
2022-08-26T23:11:42.595Z,18.69
2022-08-26T23:14:11.086Z,18.75
2022-08-26T23:16:41.553Z,18.69
2022-08-26T23:19:10.202Z,18.75
2022-08-26T23:21:38.074Z,18.74
2022-08-26T23:24:06.275Z,18.74
2022-08-26T23:26:35.648Z,18.76
2022-08-26T23:29:05.562Z,18.77
2022-08-26T23:31:33.976Z,18.79
2022-08-26T23:34:19.604Z,18.74
2022-08-26T23:36:47.639Z,18.71
2022-08-26T23:39:15.838Z,18.76
2022-08-26T23:41:43.812Z,18.80
2022-08-26T23:44:13.373Z,18.83
2022-08-26T23:46:41.295Z,18.82
2022-08-26T23:49:09.185Z,18.85
2022-08-26T23:51:54.583Z,18.85
2022-08-26T23:54:22.395Z,18.86
2022-08-26T23:56:50.302Z,18.89
2022-08-26T23:59:19.486Z,18.88
